createdAt,value
2018-04-07T00:00:31.733Z,0
2018-04-07T00:01:32.439Z,0
2018-04-07T00:02:33.145Z,0
2018-04-07T00:03:33.853Z,0
2018-04-07T00:04:34.560Z,0
2018-04-07T00:05:35.278Z,0
2018-04-07T00:06:35.985Z,0
2018-04-07T00:07:36.693Z,0
2018-04-07T00:08:37.401Z,0
2018-04-07T00:09:38.108Z,0
2018-04-07T00:10:38.821Z,0
2018-04-07T00:11:39.533Z,0
2018-04-07T00:12:40.240Z,0
2018-04-07T00:13:40.948Z,0
2018-04-07T00:14:41.654Z,0
2018-04-07T00:15:42.362Z,0
2018-04-07T00:16:43.070Z,0
2018-04-07T00:17:43.786Z,0
2018-04-07T00:18:44.494Z,0
2018-04-07T00:19:45.200Z,0
2018-04-07T00:20:45.906Z,0
2018-04-07T00:21:46.616Z,0
2018-04-07T00:22:47.333Z,0
2018-04-07T00:23:48.039Z,0
2018-04-07T00:24:48.757Z,0
2018-04-07T00:25:49.464Z,0
2018-04-07T00:26:50.171Z,0
2018-04-07T00:27:50.878Z,0
2018-04-07T00:28:51.587Z,0
2018-04-07T00:29:52.300Z,0
2018-04-07T00:30:53.008Z,0
2018-04-07T00:31:53.714Z,0
2018-04-07T00:32:54.421Z,0
2018-04-07T00:33:55.126Z,0
2018-04-07T00:34:55.832Z,0
2018-04-07T00:35:56.542Z,0
2018-04-07T00:36:57.250Z,0
2018-04-07T00:37:57.958Z,0
2018-04-07T00:38:58.668Z,0
2018-04-07T00:39:59.374Z,0
2018-04-07T00:41:00.082Z,0
2018-04-07T00:42:00.791Z,0
2018-04-07T00:43:01.498Z,0
2018-04-07T00:44:02.209Z,0
2018-04-07T00:45:02.928Z,0
2018-04-07T00:46:03.644Z,0
2018-04-07T00:47:04.362Z,0
2018-04-07T00:48:05.068Z,0
2018-04-07T00:49:05.787Z,0
2018-04-07T00:50:06.491Z,0
2018-04-07T00:51:07.198Z,0
2018-04-07T00:52:07.904Z,0
2018-04-07T00:53:08.612Z,0
2018-04-07T00:54:09.319Z,0
2018-04-07T00:55:10.024Z,0
2018-04-07T00:56:10.731Z,0
2018-04-07T00:57:11.439Z,0
2018-04-07T00:58:12.147Z,0
2018-04-07T00:59:12.855Z,0
2018-04-07T01:00:13.564Z,0
2018-04-07T01:01:14.272Z,0
2018-04-07T01:02:14.990Z,0
2018-04-07T01:03:15.706Z,0
2018-04-07T01:04:16.412Z,0
2018-04-07T01:05:17.118Z,0
2018-04-07T01:06:17.825Z,0
2018-04-07T01:07:18.533Z,0
2018-04-07T01:08:19.252Z,0
2018-04-07T01:09:19.967Z,0
2018-04-07T01:10:20.675Z,0
2018-04-07T01:11:21.387Z,0
2018-04-07T01:12:22.099Z,0
2018-04-07T01:13:22.806Z,0
2018-04-07T01:14:23.512Z,0
2018-04-07T01:15:24.218Z,0
2018-04-07T01:16:24.929Z,0
2018-04-07T01:17:25.631Z,0
2018-04-07T01:18:26.336Z,0
2018-04-07T01:19:27.053Z,0
2018-04-07T01:20:27.759Z,0
2018-04-07T01:21:28.465Z,0
2018-04-07T01:22:29.188Z,0
2018-04-07T01:23:29.901Z,0
2018-04-07T01:24:30.606Z,0
2018-04-07T01:25:31.312Z,0
2018-04-07T01:26:32.018Z,0
2018-04-07T01:27:32.725Z,0
2018-04-07T01:28:33.432Z,0
2018-04-07T01:29:34.143Z,0
2018-04-07T01:30:34.848Z,0
2018-04-07T01:32:51.140Z,0
2018-04-07T01:33:51.846Z,0
2018-04-07T01:34:52.555Z,0
2018-04-07T01:35:53.274Z,0
2018-04-07T01:36:53.980Z,0
2018-04-07T01:37:54.689Z,0
2018-04-07T01:38:55.404Z,0
2018-04-07T01:39:56.112Z,0
2018-04-07T01:40:56.820Z,0
2018-04-07T01:41:57.525Z,0
2018-04-07T01:42:58.546Z,0
2018-04-07T01:43:59.254Z,0
2018-04-07T01:44:59.961Z,0
2018-04-07T01:46:00.666Z,0
2018-04-07T01:47:01.378Z,0
2018-04-07T01:48:02.351Z,0
2018-04-07T01:49:03.057Z,0
2018-04-07T01:50:03.764Z,0
2018-04-07T01:51:04.484Z,0
2018-04-07T01:52:05.192Z,0
2018-04-07T01:53:05.913Z,0
2018-04-07T01:54:06.622Z,0
2018-04-07T01:55:07.340Z,0
2018-04-07T01:56:08.047Z,0
2018-04-07T01:57:08.755Z,0
2018-04-07T01:58:09.464Z,0
2018-04-07T01:59:10.172Z,0
2018-04-07T02:00:10.891Z,0
2018-04-07T02:01:11.600Z,0
2018-04-07T02:02:12.308Z,0
2018-04-07T02:03:13.028Z,0
2018-04-07T02:04:13.733Z,0
2018-04-07T02:05:14.440Z,0
2018-04-07T02:06:15.148Z,0
2018-04-07T02:07:15.872Z,0
2018-04-07T02:08:16.578Z,0
2018-04-07T02:09:17.300Z,0
2018-04-07T02:10:18.006Z,0
2018-04-07T02:11:18.712Z,0
2018-04-07T02:12:19.434Z,0
2018-04-07T02:13:20.137Z,0
2018-04-07T02:14:20.843Z,0
2018-04-07T02:15:21.551Z,0
2018-04-07T02:16:22.257Z,0
2018-04-07T02:17:22.968Z,0
2018-04-07T02:18:23.675Z,0
2018-04-07T02:19:24.402Z,0
2018-04-07T02:20:25.112Z,0
2018-04-07T02:21:25.820Z,0
2018-04-07T02:22:26.528Z,0
2018-04-07T02:23:27.236Z,0
2018-04-07T02:24:27.940Z,0
2018-04-07T02:25:28.646Z,0
2018-04-07T02:26:29.353Z,0
2018-04-07T02:27:30.060Z,0
2018-04-07T02:28:30.767Z,0
2018-04-07T02:29:31.474Z,0
2018-04-07T02:30:32.184Z,0
2018-04-07T02:31:32.902Z,0
2018-04-07T02:32:33.609Z,0
2018-04-07T02:33:34.315Z,0
2018-04-07T02:34:35.023Z,0
2018-04-07T02:35:35.730Z,0
2018-04-07T02:36:36.437Z,0
2018-04-07T02:37:37.145Z,0
2018-04-07T02:38:37.864Z,0
2018-04-07T02:39:38.575Z,0
2018-04-07T02:40:39.288Z,0
2018-04-07T02:41:40.006Z,0
2018-04-07T02:42:40.724Z,0
2018-04-07T02:43:41.431Z,0
2018-04-07T02:44:42.151Z,0
2018-04-07T02:45:42.860Z,0
2018-04-07T02:46:43.569Z,0
2018-04-07T02:47:44.277Z,0
2018-04-07T02:48:44.989Z,0
2018-04-07T02:49:45.708Z,0
2018-04-07T02:50:46.411Z,0
2018-04-07T02:51:47.133Z,0
2018-04-07T02:52:47.838Z,0
2018-04-07T02:53:48.557Z,0
2018-04-07T02:54:49.263Z,0
2018-04-07T02:55:49.971Z,0
2018-04-07T02:56:50.713Z,0
2018-04-07T02:57:51.388Z,0
2018-04-07T02:58:52.092Z,0
2018-04-07T02:59:52.798Z,0
2018-04-07T03:00:53.505Z,0
2018-04-07T03:01:54.211Z,0
2018-04-07T03:02:54.918Z,0
2018-04-07T03:03:55.647Z,0
2018-04-07T03:04:56.354Z,0
2018-04-07T03:05:57.063Z,0
2018-04-07T03:06:57.769Z,0
2018-04-07T03:07:58.476Z,0
2018-04-07T03:08:59.195Z,0
2018-04-07T03:09:59.900Z,0
2018-04-07T03:11:00.606Z,0
2018-04-07T03:12:01.328Z,0
2018-04-07T03:13:02.036Z,0
2018-04-07T03:14:02.755Z,0
2018-04-07T03:15:03.464Z,0
2018-04-07T03:16:04.173Z,0
2018-04-07T03:17:04.881Z,0
2018-04-07T03:18:05.602Z,0
2018-04-07T03:19:06.308Z,0
2018-04-07T03:20:07.015Z,0
2018-04-07T03:21:07.723Z,0
2018-04-07T03:22:08.432Z,0
2018-04-07T03:23:09.139Z,0
2018-04-07T03:24:09.858Z,0
2018-04-07T03:25:10.563Z,0
2018-04-07T03:26:11.270Z,0
2018-04-07T03:27:11.987Z,0
2018-04-07T03:28:12.691Z,0
2018-04-07T03:29:13.411Z,0
2018-04-07T03:30:14.120Z,0
2018-04-07T03:31:14.827Z,0
2018-04-07T03:32:15.532Z,0
2018-04-07T03:33:16.238Z,0
2018-04-07T03:34:16.947Z,0
2018-04-07T03:35:17.650Z,0
2018-04-07T03:36:18.368Z,0
2018-04-07T03:37:19.076Z,0
2018-04-07T03:38:19.779Z,0
2018-04-07T03:39:20.498Z,0
2018-04-07T03:40:21.207Z,0
2018-04-07T03:41:21.911Z,0
2018-04-07T03:42:22.619Z,0
2018-04-07T03:43:23.326Z,0
2018-04-07T03:44:24.035Z,0
2018-04-07T03:45:24.749Z,0
2018-04-07T03:46:25.458Z,0
2018-04-07T03:47:26.176Z,0
2018-04-07T03:48:26.884Z,0
2018-04-07T03:49:27.591Z,0
2018-04-07T03:50:28.331Z,0
2018-04-07T03:51:29.018Z,0
2018-04-07T03:52:29.741Z,0
2018-04-07T03:53:30.447Z,0
2018-04-07T03:54:31.156Z,0
2018-04-07T03:55:31.863Z,0
2018-04-07T03:56:32.582Z,0
2018-04-07T03:57:33.303Z,0
2018-04-07T03:58:34.011Z,0
2018-04-07T03:59:34.717Z,0
2018-04-07T04:00:35.435Z,0
2018-04-07T04:01:36.141Z,0
2018-04-07T04:02:36.848Z,0
2018-04-07T04:03:37.555Z,0
2018-04-07T04:04:38.263Z,0
2018-04-07T04:05:38.969Z,0
2018-04-07T04:06:39.676Z,0
2018-04-07T04:07:40.382Z,0
2018-04-07T04:08:41.089Z,0
2018-04-07T04:09:41.794Z,0
2018-04-07T04:10:42.501Z,0
2018-04-07T04:11:43.209Z,0
2018-04-07T04:12:43.928Z,0
2018-04-07T04:13:44.633Z,0
2018-04-07T04:14:45.340Z,0
2018-04-07T04:15:46.046Z,0
2018-04-07T04:16:46.752Z,0
2018-04-07T04:17:47.461Z,0
2018-04-07T04:18:48.169Z,0
2018-04-07T04:19:48.875Z,0
2018-04-07T04:20:49.583Z,4
2018-04-07T04:21:50.302Z,4
2018-04-07T04:22:51.022Z,0
2018-04-07T04:23:51.728Z,4
2018-04-07T04:24:52.436Z,4
2018-04-07T04:25:53.142Z,4
2018-04-07T04:26:53.850Z,4
2018-04-07T04:27:54.569Z,8
2018-04-07T04:28:55.279Z,8
2018-04-07T04:29:55.983Z,8
2018-04-07T04:30:56.701Z,8
2018-04-07T04:31:57.413Z,12
2018-04-07T04:32:58.120Z,12
2018-04-07T04:33:58.841Z,16
2018-04-07T04:34:59.564Z,20
2018-04-07T04:36:00.268Z,24
2018-04-07T04:37:00.980Z,24
2018-04-07T04:38:01.698Z,32
2018-04-07T04:39:02.407Z,36
2018-04-07T04:40:03.111Z,40
2018-04-07T04:41:03.820Z,44
2018-04-07T04:42:04.527Z,52
2018-04-07T04:43:05.235Z,60
2018-04-07T04:44:05.953Z,68
2018-04-07T04:45:06.662Z,76
2018-04-07T04:46:07.373Z,84
2018-04-07T04:47:08.079Z,92
2018-04-07T04:48:08.788Z,104
2018-04-07T04:49:09.497Z,116
2018-04-07T04:50:10.206Z,128
2018-04-07T04:51:10.928Z,144
2018-04-07T04:52:11.652Z,160
2018-04-07T04:53:12.365Z,180
2018-04-07T04:54:13.071Z,200
2018-04-07T04:55:13.790Z,220
2018-04-07T04:56:14.502Z,244
2018-04-07T04:57:15.213Z,272
2018-04-07T04:58:15.923Z,300
2018-04-07T04:59:16.635Z,328
2018-04-07T05:00:17.358Z,356
2018-04-07T05:01:18.079Z,388
2018-04-07T05:02:18.789Z,420
2018-04-07T05:03:19.513Z,456
2018-04-07T05:04:20.224Z,492
2018-04-07T05:05:20.947Z,524
2018-04-07T05:06:21.667Z,560
2018-04-07T05:07:22.383Z,600
2018-04-07T05:08:23.092Z,632
2018-04-07T05:10:39.031Z,724
2018-04-07T05:11:39.740Z,768
2018-04-07T05:12:40.451Z,808
2018-04-07T05:13:41.163Z,852
2018-04-07T05:14:41.874Z,896
2018-04-07T05:15:42.597Z,940
2018-04-07T05:16:43.318Z,980
2018-04-07T05:17:44.027Z,1016
2018-04-07T05:18:44.740Z,1064
2018-04-07T05:19:45.450Z,1104
2018-04-07T05:20:46.160Z,1144
2018-04-07T05:21:46.886Z,1188
2018-04-07T05:22:47.596Z,1240
2018-04-07T05:23:48.319Z,1288
2018-04-07T05:24:49.032Z,1336
2018-04-07T05:25:49.743Z,1392
2018-04-07T05:26:50.468Z,1444
2018-04-07T05:27:51.180Z,1500
2018-04-07T05:28:51.905Z,1552
2018-04-07T05:29:52.618Z,1596
2018-04-07T05:30:53.345Z,1656
2018-04-07T05:31:54.056Z,1716
2018-04-07T05:32:54.768Z,1776
2018-04-07T05:33:55.493Z,1848
2018-04-07T05:34:56.205Z,1908
2018-04-07T05:35:56.916Z,1956
2018-04-07T05:36:57.645Z,1996
2018-04-07T05:37:58.356Z,2024
2018-04-07T05:38:59.068Z,2056
2018-04-07T05:39:59.781Z,2088
2018-04-07T05:41:00.494Z,2120
2018-04-07T05:42:01.207Z,2156
2018-04-07T05:43:01.919Z,2212
2018-04-07T05:44:02.643Z,2268
2018-04-07T05:45:03.358Z,2292
2018-04-07T05:46:04.084Z,2316
2018-04-07T05:47:04.797Z,2344
2018-04-07T05:48:05.510Z,2348
2018-04-07T05:49:06.221Z,2368
2018-04-07T05:50:06.991Z,2432
2018-04-07T05:51:07.665Z,2488
2018-04-07T05:52:08.386Z,2528
2018-04-07T05:53:09.105Z,2532
2018-04-07T05:54:09.817Z,2580
2018-04-07T05:55:10.529Z,2576
2018-04-07T05:56:11.240Z,2624
2018-04-07T05:57:11.951Z,2680
2018-04-07T05:58:12.677Z,2708
2018-04-07T05:59:13.387Z,2732
2018-04-07T06:00:14.099Z,2776
2018-04-07T06:01:14.814Z,2836
2018-04-07T06:02:15.528Z,2908
2018-04-07T06:03:16.242Z,2992
2018-04-07T06:04:16.955Z,3048
2018-04-07T06:05:17.685Z,3080
2018-04-07T06:06:18.412Z,3124
2018-04-07T06:07:19.126Z,3204
2018-04-07T06:08:19.841Z,3200
2018-04-07T06:09:20.556Z,3224
2018-04-07T06:10:21.287Z,3244
2018-04-07T06:11:22.011Z,3292
2018-04-07T06:12:22.724Z,3396
2018-04-07T06:13:23.439Z,3508
2018-04-07T06:14:24.166Z,3544
2018-04-07T06:15:24.882Z,3572
2018-04-07T06:16:25.595Z,3676
2018-04-07T06:17:26.320Z,3728
2018-04-07T06:18:27.036Z,3736
2018-04-07T06:19:27.757Z,3856
2018-04-07T06:20:28.514Z,3988
2018-04-07T06:21:29.196Z,4084
2018-04-07T06:22:29.927Z,4172
2018-04-07T06:23:30.636Z,4260
2018-04-07T06:24:31.366Z,4336
2018-04-07T06:25:32.096Z,4316
2018-04-07T06:26:32.810Z,4512
2018-04-07T06:27:33.541Z,5128
2018-04-07T06:28:34.267Z,7080
2018-04-07T06:29:34.996Z,10212
2018-04-07T06:30:35.725Z,13040
2018-04-07T06:31:36.443Z,13984
2018-04-07T06:32:37.162Z,14048
2018-04-07T06:33:37.896Z,13984
2018-04-07T06:34:38.614Z,14272
2018-04-07T06:35:39.332Z,14272
2018-04-07T06:36:40.050Z,14560
2018-04-07T06:37:40.767Z,15168
2018-04-07T06:38:41.484Z,13580
2018-04-07T06:39:42.204Z,14336
2018-04-07T06:40:42.924Z,15296
2018-04-07T06:41:43.648Z,14464
2018-04-07T06:42:44.363Z,15424
2018-04-07T06:43:45.094Z,15936
2018-04-07T06:44:45.813Z,16256
2018-04-07T06:45:46.532Z,16096
2018-04-07T06:46:47.256Z,13408
2018-04-07T06:47:47.971Z,9356
2018-04-07T06:48:48.690Z,7140
2018-04-07T06:49:49.409Z,6676
2018-04-07T06:50:50.128Z,6476
2018-04-07T06:51:50.847Z,6524
2018-04-07T06:52:51.566Z,6428
2018-04-07T06:53:52.286Z,6280
2018-04-07T06:54:53.007Z,6216
2018-04-07T06:55:53.726Z,6256
2018-04-07T06:56:54.447Z,6184
2018-04-07T06:57:55.179Z,6064
2018-04-07T06:58:55.912Z,6184
2018-04-07T06:59:56.631Z,6228
2018-04-07T07:00:57.368Z,6252
2018-04-07T07:01:58.087Z,6216
2018-04-07T07:02:58.808Z,6264
2018-04-07T07:03:59.527Z,6348
2018-04-07T07:05:00.248Z,6352
2018-04-07T07:06:00.967Z,6280
2018-04-07T07:07:01.690Z,6360
2018-04-07T07:08:02.405Z,6604
2018-04-07T07:09:03.124Z,6712
2018-04-07T07:10:03.844Z,6828
2018-04-07T07:11:04.570Z,7100
2018-04-07T07:12:05.288Z,7288
2018-04-07T07:13:06.008Z,7864
2018-04-07T07:14:06.730Z,8540
2018-04-07T07:15:07.452Z,10216
2018-04-07T07:16:08.174Z,14720
2018-04-07T07:17:08.895Z,17024
2018-04-07T07:18:09.631Z,20160
2018-04-07T07:19:10.364Z,23488
2018-04-07T07:20:11.083Z,24928
2018-04-07T07:21:11.805Z,25632
2018-04-07T07:22:12.530Z,25920
2018-04-07T07:23:13.253Z,26496
2018-04-07T07:24:14.010Z,27808
2018-04-07T07:25:14.700Z,26688
2018-04-07T07:26:15.422Z,25376
2018-04-07T07:27:16.145Z,24608
2018-04-07T07:28:16.868Z,23968
2018-04-07T07:29:17.592Z,22240
2018-04-07T07:30:18.317Z,21760
2018-04-07T07:31:19.049Z,22816
2018-04-07T07:32:19.775Z,26432
2018-04-07T07:33:20.506Z,29024
2018-04-07T07:34:21.228Z,29856
2018-04-07T07:35:21.950Z,29376
2018-04-07T07:36:22.674Z,30176
2018-04-07T07:37:23.398Z,30624
2018-04-07T07:38:24.130Z,30336
2018-04-07T07:39:24.856Z,30624
2018-04-07T07:40:25.586Z,30816
2018-04-07T07:41:26.311Z,31136
2018-04-07T07:42:27.047Z,31680
2018-04-07T07:43:27.772Z,33952
2018-04-07T07:44:28.494Z,33696
2018-04-07T07:45:29.233Z,32032
2018-04-07T07:46:29.960Z,31424
2018-04-07T07:47:30.685Z,32192
2018-04-07T07:48:31.412Z,31968
2018-04-07T07:49:32.137Z,30208
2018-04-07T07:50:32.861Z,29824
2018-04-07T07:51:33.590Z,29856
2018-04-07T07:52:34.313Z,30656
2018-04-07T07:53:35.036Z,31520
2018-04-07T07:54:35.761Z,31776
2018-04-07T07:55:36.487Z,32800
2018-04-07T07:56:37.212Z,33024
2018-04-07T07:57:37.953Z,36352
2018-04-07T07:58:38.677Z,37504
2018-04-07T07:59:39.403Z,38272
2018-04-07T08:00:40.132Z,42944
2018-04-07T08:01:40.868Z,44352
2018-04-07T08:02:41.595Z,45312
2018-04-07T08:03:42.320Z,40608
2018-04-07T08:04:43.050Z,42272
2018-04-07T08:05:43.778Z,45696
2018-04-07T08:06:44.504Z,45056
2018-04-07T08:07:45.246Z,47648
2018-04-07T08:08:45.975Z,49504
2018-04-07T08:09:46.705Z,49856
2018-04-07T08:10:47.435Z,50560
2018-04-07T08:11:48.169Z,51808
2018-04-07T08:12:48.897Z,51488
2018-04-07T08:13:49.641Z,50592
2018-04-07T08:14:50.378Z,49856
2018-04-07T08:15:51.112Z,50976
2018-04-07T08:16:51.845Z,51040
2018-04-07T08:17:52.581Z,52352
2018-04-07T08:18:53.314Z,50816
2018-04-07T08:19:54.050Z,50912
2018-04-07T08:20:54.781Z,50880
2018-04-07T08:21:55.521Z,51584
2018-04-07T08:22:56.251Z,50400
2018-04-07T08:23:56.993Z,48608
2018-04-07T08:24:57.730Z,49696
2018-04-07T08:25:58.463Z,49536
2018-04-07T08:26:59.197Z,50112
2018-04-07T08:27:59.935Z,49216
2018-04-07T08:29:00.667Z,51488
2018-04-07T08:30:01.418Z,52704
2018-04-07T08:31:02.147Z,52960
2018-04-07T08:32:02.888Z,52672
2018-04-07T08:33:03.617Z,50976
2018-04-07T08:34:04.352Z,55680
2018-04-07T08:35:05.086Z,54016
2018-04-07T08:36:05.833Z,55200
2018-04-07T08:37:06.569Z,55872
2018-04-07T08:38:07.304Z,57376
2018-04-07T08:39:08.048Z,56256
2018-04-07T08:40:08.781Z,56032
2018-04-07T08:41:09.514Z,53472
2018-04-07T08:42:10.244Z,54432
2018-04-07T08:43:10.991Z,56416
2018-04-07T08:44:11.741Z,53664
2018-04-07T08:45:12.475Z,55616
2018-04-07T08:46:13.206Z,57120
2018-04-07T08:47:13.940Z,60320
2018-04-07T08:48:14.686Z,60736
2018-04-07T08:49:15.420Z,62080
2018-04-07T08:50:16.151Z,62976
2018-04-07T08:51:16.897Z,65248
2018-04-07T08:52:17.633Z,62432
2018-04-07T08:53:18.365Z,59296
2018-04-07T08:54:19.098Z,59968
2018-04-07T08:55:19.833Z,59008
2018-04-07T08:56:20.582Z,60128
2018-04-07T08:57:21.322Z,61280
2018-04-07T08:58:22.049Z,61536
2018-04-07T08:59:22.795Z,61504
2018-04-07T09:00:23.528Z,61632
2018-04-07T09:01:24.262Z,62816
2018-04-07T09:02:24.998Z,63712
2018-04-07T09:03:25.743Z,64064
2018-04-07T09:04:26.481Z,64000
2018-04-07T09:05:27.224Z,64352
2018-04-07T09:06:27.956Z,61984
2018-04-07T09:07:28.691Z,59296
2018-04-07T09:08:29.424Z,60896
2018-04-07T09:09:30.159Z,60832
2018-04-07T09:10:30.894Z,61856
2018-04-07T09:11:31.627Z,57120
2018-04-07T09:12:32.361Z,62624
2018-04-07T09:13:33.096Z,58976
2018-04-07T09:14:33.829Z,62912
2018-04-07T09:15:34.577Z,62432
2018-04-07T09:16:35.312Z,63360
2018-04-07T09:17:36.061Z,65632
2018-04-07T09:18:36.796Z,65312
2018-04-07T09:19:37.529Z,65728
2018-04-07T09:20:38.266Z,65760
2018-04-07T09:21:39.001Z,63840
2018-04-07T09:22:39.736Z,65056
2018-04-07T09:23:40.472Z,65408
2018-04-07T09:24:41.207Z,64320
2018-04-07T09:25:41.942Z,63616
2018-04-07T09:26:42.678Z,61376
2018-04-07T09:27:43.412Z,61760
2018-04-07T09:28:44.148Z,62304
2018-04-07T09:29:44.882Z,59904
2018-04-07T09:30:45.617Z,61312
2018-04-07T09:31:46.364Z,60640
2018-04-07T09:32:47.100Z,62400
2018-04-07T09:33:47.839Z,61632
2018-04-07T09:34:48.570Z,62528
2018-04-07T09:35:49.306Z,63648
2018-04-07T09:36:50.041Z,64512
2018-04-07T09:37:50.776Z,64928
2018-04-07T09:38:51.510Z,66112
2018-04-07T09:39:52.249Z,67424
2018-04-07T09:40:52.982Z,69376
2018-04-07T09:41:53.721Z,66688
2018-04-07T09:42:54.450Z,71488
2018-04-07T09:43:55.186Z,68448
2018-04-07T09:44:55.921Z,68416
2018-04-07T09:45:56.657Z,70368
2018-04-07T09:46:57.392Z,71776
2018-04-07T09:47:58.125Z,71008
2018-04-07T09:48:58.862Z,72576
2018-04-07T09:49:59.596Z,71840
2018-04-07T09:51:00.344Z,70208
2018-04-07T09:52:01.080Z,70880
2018-04-07T09:53:01.829Z,74272
2018-04-07T09:54:02.580Z,74624
2018-04-07T09:55:03.316Z,75232
2018-04-07T09:56:04.051Z,76000
2018-04-07T09:57:04.799Z,76384
2018-04-07T09:58:05.534Z,77568
2018-04-07T09:59:06.270Z,73280
2018-04-07T10:00:07.005Z,71392
2018-04-07T10:01:07.740Z,75904
2018-04-07T10:02:08.482Z,74912
2018-04-07T10:03:09.211Z,76000
2018-04-07T10:04:09.948Z,77856
2018-04-07T10:05:10.685Z,75968
2018-04-07T10:06:11.419Z,78208
2018-04-07T10:07:12.155Z,72096
2018-04-07T10:08:12.895Z,67488
2018-04-07T10:09:13.627Z,69856
2018-04-07T10:10:14.363Z,69568
2018-04-07T10:11:15.101Z,72288
2018-04-07T10:12:15.837Z,69376
2018-04-07T10:13:16.572Z,71808
2018-04-07T10:14:17.307Z,69312
2018-04-07T10:15:18.044Z,72224
2018-04-07T10:16:18.782Z,70176
2018-04-07T10:17:19.533Z,75072
2018-04-07T10:18:20.280Z,79680
2018-04-07T10:19:21.015Z,76896
2018-04-07T10:20:21.751Z,78016
2018-04-07T10:21:22.505Z,80864
2018-04-07T10:22:23.240Z,70912
2018-04-07T10:23:23.973Z,80896
2018-04-07T10:24:24.711Z,78720
2018-04-07T10:25:25.446Z,79392
2018-04-07T10:26:26.179Z,72896
2018-04-07T10:27:26.920Z,74272
2018-04-07T10:28:27.668Z,76128
2018-04-07T10:29:28.403Z,80288
2018-04-07T10:30:29.141Z,77440
2018-04-07T10:31:29.877Z,76032
2018-04-07T10:32:30.612Z,78496
2018-04-07T10:33:31.350Z,59808
2018-04-07T10:34:32.085Z,77440
2018-04-07T10:35:32.820Z,80064
2018-04-07T10:36:33.555Z,80768
2018-04-07T10:37:34.296Z,75776
2018-04-07T10:38:35.035Z,83648
2018-04-07T10:39:35.775Z,75712
2018-04-07T10:40:36.513Z,79648
2018-04-07T10:41:37.258Z,82656
2018-04-07T10:42:37.998Z,79488
2018-04-07T10:43:38.739Z,81856
2018-04-07T10:44:39.482Z,80544
2018-04-07T10:45:40.236Z,81664
2018-04-07T10:46:40.985Z,78400
2018-04-07T10:47:41.730Z,82208
2018-04-07T10:48:42.481Z,71104
2018-04-07T10:49:43.229Z,81376
2018-04-07T10:50:43.974Z,84448
2018-04-07T10:51:44.723Z,83648
2018-04-07T10:52:45.506Z,80192
2018-04-07T10:53:46.223Z,75104
2018-04-07T10:54:46.971Z,71296
2018-04-07T10:55:47.718Z,80096
2018-04-07T10:56:48.462Z,80928
2018-04-07T10:57:49.206Z,84288
2018-04-07T10:58:49.950Z,81216
2018-04-07T10:59:50.721Z,77344
2018-04-07T11:00:51.437Z,73632
2018-04-07T11:01:52.181Z,63072
2018-04-07T11:02:52.923Z,52544
2018-04-07T11:03:53.664Z,66976
2018-04-07T11:04:54.408Z,67904
2018-04-07T11:05:55.151Z,63392
2018-04-07T11:06:55.892Z,74432
2018-04-07T11:07:56.635Z,76800
2018-04-07T11:08:57.379Z,83808
2018-04-07T11:09:58.123Z,83648
2018-04-07T11:10:58.868Z,86624
2018-04-07T11:11:59.608Z,86016
2018-04-07T11:13:00.352Z,79232
2018-04-07T11:14:01.096Z,77952
2018-04-07T11:15:01.850Z,70112
2018-04-07T11:16:02.593Z,76928
2018-04-07T11:17:03.338Z,81216
2018-04-07T11:18:04.080Z,83840
2018-04-07T11:19:04.834Z,81504
2018-04-07T11:20:05.587Z,81280
2018-04-07T11:21:06.333Z,80032
2018-04-07T11:22:07.077Z,85376
2018-04-07T11:23:07.823Z,85024
2018-04-07T11:24:08.578Z,79104
2018-04-07T11:25:09.321Z,78496
2018-04-07T11:26:10.066Z,73152
2018-04-07T11:27:10.807Z,78304
2018-04-07T11:28:11.550Z,76992
2018-04-07T11:29:12.296Z,78336
2018-04-07T11:30:13.040Z,75104
2018-04-07T11:31:13.782Z,77696
2018-04-07T11:32:14.527Z,77472
2018-04-07T11:33:15.272Z,75488
2018-04-07T11:34:16.015Z,77792
2018-04-07T11:35:16.771Z,73888
2018-04-07T11:36:17.514Z,74016
2018-04-07T11:37:18.258Z,71264
2018-04-07T11:38:19.000Z,74016
2018-04-07T11:39:19.755Z,79840
2018-04-07T11:40:20.510Z,77600
2018-04-07T11:41:21.264Z,79936
2018-04-07T11:42:22.013Z,85440
2018-04-07T11:43:22.753Z,83040
2018-04-07T11:44:23.493Z,82208
2018-04-07T11:45:24.236Z,83360
2018-04-07T11:46:24.987Z,81312
2018-04-07T11:47:25.734Z,81280
2018-04-07T11:48:26.493Z,79456
2018-04-07T11:49:27.237Z,79296
2018-04-07T11:50:27.981Z,77600
2018-04-07T11:51:28.733Z,76992
2018-04-07T11:52:29.479Z,76800
2018-04-07T11:53:30.218Z,76352
2018-04-07T11:54:30.960Z,69184
2018-04-07T11:55:31.706Z,72160
2018-04-07T11:56:32.449Z,70368
2018-04-07T11:57:33.195Z,63712
2018-04-07T11:58:33.937Z,64544
2018-04-07T11:59:34.680Z,68736
2018-04-07T12:00:35.421Z,70720
2018-04-07T12:01:36.165Z,74016
2018-04-07T12:02:36.924Z,71168
2018-04-07T12:03:37.650Z,75808
2018-04-07T12:04:38.391Z,72608
2018-04-07T12:05:39.134Z,64480
2018-04-07T12:06:39.879Z,66752
2018-04-07T12:07:40.625Z,52256
2018-04-07T12:08:41.364Z,52928
2018-04-07T12:09:42.105Z,49184
2018-04-07T12:10:42.845Z,50304
2018-04-07T12:11:43.606Z,48000
2018-04-07T12:12:44.330Z,54528
2018-04-07T12:13:45.075Z,60480
2018-04-07T12:14:45.833Z,66176
2018-04-07T12:15:46.572Z,67424
2018-04-07T12:16:47.319Z,69664
2018-04-07T12:17:48.079Z,58080
2018-04-07T12:18:48.840Z,66464
2018-04-07T12:19:49.568Z,69504
2018-04-07T12:20:50.315Z,66688
2018-04-07T12:21:51.073Z,69024
2018-04-07T12:22:51.819Z,72416
2018-04-07T12:23:52.558Z,72544
2018-04-07T12:24:53.302Z,73696
2018-04-07T12:25:54.045Z,75808
2018-04-07T12:26:54.788Z,75552
2018-04-07T12:27:55.535Z,75072
2018-04-07T12:28:56.280Z,76320
2018-04-07T12:29:57.021Z,73056
2018-04-07T12:30:57.762Z,72704
2018-04-07T12:31:58.504Z,73120
2018-04-07T12:32:59.259Z,57952
2018-04-07T12:33:59.999Z,65056
2018-04-07T12:35:00.752Z,69568
2018-04-07T12:36:01.494Z,72576
2018-04-07T12:37:02.247Z,74752
2018-04-07T12:38:02.991Z,71680
2018-04-07T12:39:03.746Z,67776
2018-04-07T12:40:04.490Z,70944
2018-04-07T12:41:05.231Z,71040
2018-04-07T12:42:05.973Z,73280
2018-04-07T12:43:06.728Z,67680
2018-04-07T12:44:07.470Z,69632
2018-04-07T12:45:08.209Z,71168
2018-04-07T12:46:08.950Z,68704
2018-04-07T12:47:09.698Z,72032
2018-04-07T12:48:10.448Z,69376
2018-04-07T12:49:11.203Z,71360
2018-04-07T12:50:11.943Z,71936
2018-04-07T12:51:12.713Z,58688
2018-04-07T12:52:13.425Z,69824
2018-04-07T12:53:14.166Z,66880
2018-04-07T12:54:14.907Z,68000
2018-04-07T12:55:15.662Z,67712
2018-04-07T12:56:16.405Z,70368
2018-04-07T12:57:17.149Z,69568
2018-04-07T12:58:17.890Z,66304
2018-04-07T12:59:18.646Z,67488
2018-04-07T13:00:19.391Z,64064
2018-04-07T13:01:20.131Z,66368
2018-04-07T13:02:20.873Z,69600
2018-04-07T13:03:21.616Z,61120
2018-04-07T13:04:22.360Z,61056
2018-04-07T13:05:23.112Z,59936
2018-04-07T13:06:23.851Z,63680
2018-04-07T13:07:24.592Z,62784
2018-04-07T13:08:25.334Z,66080
2018-04-07T13:09:26.072Z,61376
2018-04-07T13:10:26.815Z,52160
2018-04-07T13:11:27.557Z,64384
2018-04-07T13:12:28.301Z,61728
2018-04-07T13:13:29.043Z,62528
2018-04-07T13:14:29.797Z,66880
2018-04-07T13:15:30.536Z,66688
2018-04-07T13:16:31.277Z,67200
2018-04-07T13:17:32.019Z,66048
2018-04-07T13:18:32.756Z,61568
2018-04-07T13:19:33.498Z,55872
2018-04-07T13:20:34.238Z,54080
2018-04-07T13:21:34.992Z,44800
2018-04-07T13:22:35.736Z,39552
2018-04-07T13:23:36.476Z,41824
2018-04-07T13:24:37.223Z,44448
2018-04-07T13:25:37.967Z,55872
2018-04-07T13:26:38.713Z,54336
2018-04-07T13:27:39.451Z,54080
2018-04-07T13:28:40.198Z,55424
2018-04-07T13:29:40.936Z,53536
2018-04-07T13:30:41.679Z,52576
2018-04-07T13:31:42.434Z,52096
2018-04-07T13:32:43.180Z,52736
2018-04-07T13:33:43.917Z,51520
2018-04-07T13:34:44.659Z,50624
2018-04-07T13:35:45.404Z,51200
2018-04-07T13:36:46.142Z,53216
2018-04-07T13:37:46.888Z,54176
2018-04-07T13:38:47.642Z,53728
2018-04-07T13:39:48.386Z,51744
2018-04-07T13:40:49.128Z,50816
2018-04-07T13:41:49.884Z,52576
2018-04-07T13:42:50.637Z,52544
2018-04-07T13:43:51.378Z,50944
2018-04-07T13:44:52.128Z,49888
2018-04-07T13:45:52.862Z,50304